Marselisborg — A8VR8 — position and weather

sailwx.info

Track history (hours):
 
Tides and Currents Weather Stations Pressure Air Temp Water Temp Dewpoint Dewpoint Depression Visibility Wind Speed Wind Dir Waves Ship Positions

Marselisborg

Last reported at 2014-Dec-20 14:33 UTC. Time now 2014-Dec-21 12:48 UTC.
Position N 46°36' W 071°60'.

Length 138 m; draft 8.2 m.

Type: Ship. MMSI: 636092036.

Date/timePositionNaut miles runAvg speedWind from/ knotsBaromVisibWave heightAir tempDewpointWater temp
2014-Dec-20 14:33N 46°36' W 071°60'1313.0
2014-Dec-20 13:34N 46°28' W 072°15'1312.8
2014-Dec-20 12:33N 46°21' W 072°30'9 9.2
2014-Dec-20 11:33N 46°16' W 072°41'1412.6
2014-Dec-20 10:26N 46°07' W 072°57'9 4.1
2014-Dec-20 08:16N 46°03' W 073°08'0 0.0
2014-Dec-20 05:22N 46°03' W 073°08'0 0.0
2014-Dec-20 04:25N 46°03' W 073°08'0 0.0
2014-Dec-20 03:25N 46°03' W 073°08'0 0.0
2014-Dec-20 01:28N 46°03' W 073°08'0 0.0
2014-Dec-20 00:28N 46°03' W 073°08'0 0.0
2014-Dec-19 23:31N 46°03' W 073°08'0 0.0
2014-Dec-19 22:31N 46°03' W 073°08'0 0.0
2014-Dec-19 20:28N 46°03' W 073°08'0 0.0
2014-Dec-19 19:16N 46°03' W 073°08'0 0.0
2014-Dec-19 17:19N 46°03' W 073°08'0 0.0
2014-Dec-19 15:28N 46°03' W 073°08'0 0.0
2014-Dec-19 14:25N 46°03' W 073°08'0 0.0
2014-Dec-19 13:31N 46°03' W 073°08'0 0.0
2014-Dec-19 12:28N 46°03' W 073°08'0 0.0
2014-Dec-19 11:31N 46°03' W 073°08'0 0.0
2014-Dec-19 10:07N 46°03' W 073°08'0 0.0
2014-Dec-19 07:19N 46°03' W 073°08'0 0.0
2014-Dec-19 04:28N 46°03' W 073°08'0 0.0
2014-Dec-19 03:19N 46°03' W 073°08'0 0.0
2014-Dec-19 02:19N 46°03' W 073°08'0 0.0
2014-Dec-19 01:13N 46°03' W 073°08'0 0.0
2014-Dec-19 00:22N 46°03' W 073°08'0 0.0
2014-Dec-18 22:25N 46°03' W 073°08'0 0.0
2014-Dec-18 21:22N 46°03' W 073°08'0 0.0
2014-Dec-18 20:19N 46°03' W 073°08'0 0.0
2014-Dec-18 19:07N 46°03' W 073°08'0 0.0
2014-Dec-18 18:25N 46°03' W 073°08'0 0.0
2014-Dec-18 17:07N 46°03' W 073°08'0 0.0
2014-Dec-18 16:25N 46°03' W 073°08'0 0.0
2014-Dec-18 15:25N 46°03' W 073°08'0 0.0
2014-Dec-18 14:13N 46°03' W 073°08'0 0.0
2014-Dec-18 13:16N 46°03' W 073°08'1 0.4
2014-Dec-18 10:27N 46°03' W 073°07'0 0.0
2014-Dec-17 01:16N 46°04' W 073°06'0 0.0
2014-Dec-16 15:23N 46°04' W 073°06'0 0.0
2014-Dec-16 14:33N 46°04' W 073°06'0 0.0
2014-Dec-16 13:32N 46°04' W 073°06'0 0.0
2014-Dec-16 12:33N 46°04' W 073°06'6 4.9
2014-Dec-16 11:15N 46°07' W 072°58'811.6
2014-Dec-16 10:32N 46°12' W 072°50'1212.2
2014-Dec-16 09:33N 46°18' W 072°35'8 8.4
2014-Dec-16 08:33N 46°23' W 072°25'1110.8
2014-Dec-16 07:33N 46°31' W 072°13'  
Track history (hours):
 
Tides and Currents Weather Stations Pressure Air Temp Water Temp Dewpoint Dewpoint Depression Visibility Wind Speed Wind Dir Waves Ship Positions

Marselisborg

Last reported at 2014-Dec-20 14:33 UTC. Time now 2014-Dec-21 12:48 UTC.
Position N 46°36' W 071°60'.

Length 138 m; draft 8.2 m.

Type: Ship. MMSI: 636092036.

Date/timePositionNaut miles runAvg speedWind from/ knotsBaromVisibWave heightAir tempDewpointWater temp
2014-Dec-20 14:33N 46°36' W 071°60'1313.0
2014-Dec-20 13:34N 46°28' W 072°15'1312.8
2014-Dec-20 12:33N 46°21' W 072°30'9 9.2
2014-Dec-20 11:33N 46°16' W 072°41'1412.6
2014-Dec-20 10:26N 46°07' W 072°57'9 4.1
2014-Dec-20 08:16N 46°03' W 073°08'0 0.0
2014-Dec-20 05:22N 46°03' W 073°08'0 0.0
2014-Dec-20 04:25N 46°03' W 073°08'0 0.0
2014-Dec-20 03:25N 46°03' W 073°08'0 0.0
2014-Dec-20 01:28N 46°03' W 073°08'0 0.0
2014-Dec-20 00:28N 46°03' W 073°08'0 0.0
2014-Dec-19 23:31N 46°03' W 073°08'0 0.0
2014-Dec-19 22:31N 46°03' W 073°08'0 0.0
2014-Dec-19 20:28N 46°03' W 073°08'0 0.0
2014-Dec-19 19:16N 46°03' W 073°08'0 0.0
2014-Dec-19 17:19N 46°03' W 073°08'0 0.0
2014-Dec-19 15:28N 46°03' W 073°08'0 0.0
2014-Dec-19 14:25N 46°03' W 073°08'0 0.0
2014-Dec-19 13:31N 46°03' W 073°08'0 0.0
2014-Dec-19 12:28N 46°03' W 073°08'0 0.0
2014-Dec-19 11:31N 46°03' W 073°08'0 0.0
2014-Dec-19 10:07N 46°03' W 073°08'0 0.0
2014-Dec-19 07:19N 46°03' W 073°08'0 0.0
2014-Dec-19 04:28N 46°03' W 073°08'0 0.0
2014-Dec-19 03:19N 46°03' W 073°08'0 0.0
2014-Dec-19 02:19N 46°03' W 073°08'0 0.0
2014-Dec-19 01:13N 46°03' W 073°08'0 0.0
2014-Dec-19 00:22N 46°03' W 073°08'0 0.0
2014-Dec-18 22:25N 46°03' W 073°08'0 0.0
2014-Dec-18 21:22N 46°03' W 073°08'0 0.0
2014-Dec-18 20:19N 46°03' W 073°08'0 0.0
2014-Dec-18 19:07N 46°03' W 073°08'0 0.0
2014-Dec-18 18:25N 46°03' W 073°08'0 0.0
2014-Dec-18 17:07N 46°03' W 073°08'0 0.0
2014-Dec-18 16:25N 46°03' W 073°08'0 0.0
2014-Dec-18 15:25N 46°03' W 073°08'0 0.0
2014-Dec-18 14:13N 46°03' W 073°08'0 0.0
2014-Dec-18 13:16N 46°03' W 073°08'1 0.4
2014-Dec-18 10:27N 46°03' W 073°07'0 0.0
2014-Dec-17 01:16N 46°04' W 073°06'0 0.0
2014-Dec-16 15:23N 46°04' W 073°06'0 0.0
2014-Dec-16 14:33N 46°04' W 073°06'0 0.0
2014-Dec-16 13:32N 46°04' W 073°06'0 0.0
2014-Dec-16 12:33N 46°04' W 073°06'6 4.9
2014-Dec-16 11:15N 46°07' W 072°58'811.6
2014-Dec-16 10:32N 46°12' W 072°50'1212.2
2014-Dec-16 09:33N 46°18' W 072°35'8 8.4
2014-Dec-16 08:33N 46°23' W 072°25'1110.8
2014-Dec-16 07:33N 46°31' W 072°13'  

Dump ship's entire track history